Explorer Spirit — C6WL3 — position and weather

sailwx.info

Track history (hours):
 
Tides and Currents Weather Stations Pressure Air Temp Water Temp Dewpoint Dewpoint Depression Visibility Wind Speed Wind Dir Waves Ship Positions

Explorer Spirit

Last reported at 2017-Dec-18 16:29 UTC. Time now 2017-Dec-18 16:47 UTC.
Position N 49°28' E 000°09'.

Length 240 m; draft 12.3 m.

Type: Tanker. MMSI: 308109000.

Date/timePositionNaut miles runAvg speedWind from/ knotsBaromVisibWave heightAir tempDewpointWater temp
2017-Dec-18 16:29N 49°28' E 000°09'0 0.0
2017-Dec-18 15:59N 49°28' E 000°09'0 0.0
2017-Dec-18 15:29N 49°28' E 000°09'0 0.0
2017-Dec-18 14:59N 49°28' E 000°09'0 0.0
2017-Dec-18 14:29N 49°28' E 000°09'0 0.0
2017-Dec-18 13:59N 49°28' E 000°09'0 0.0
2017-Dec-18 13:29N 49°28' E 000°09'0 0.0
2017-Dec-18 12:59N 49°28' E 000°09'0 0.0
2017-Dec-18 12:29N 49°28' E 000°09'0 0.0
2017-Dec-18 11:59N 49°28' E 000°09'0 0.0
2017-Dec-18 11:29N 49°28' E 000°09'0 0.0
2017-Dec-18 10:59N 49°28' E 000°09'0 0.0
2017-Dec-18 10:29N 49°28' E 000°09'0 0.0
2017-Dec-18 09:59N 49°28' E 000°09'0 0.0
2017-Dec-18 09:29N 49°28' E 000°09'0 0.0
2017-Dec-18 09:01N 49°28' E 000°09'0 0.6
2017-Dec-18 08:31N 49°28' E 000°10'2 5.0
2017-Dec-18 08:01N 49°29' E 000°06'4 8.2
2017-Dec-18 07:31N 49°30' W 000°00'510.8
2017-Dec-18 07:01N 49°32' W 000°08'4 9.0
2017-Dec-18 06:31N 49°34' W 000°14'3 6.7
2017-Dec-18 06:00N 49°35' W 000°19'2 4.3
2017-Dec-18 05:31N 49°37' W 000°20'1 2.5
2017-Dec-18 05:00N 49°37' W 000°21'2 3.4
2017-Dec-18 04:31N 49°37' W 000°24'2 4.7
2017-Dec-18 04:01N 49°38' W 000°27'4 8.2
2017-Dec-18 03:30N 49°41' W 000°32'5 9.6
2017-Dec-18 03:01N 49°43' W 000°38'5 9.7
2017-Dec-18 02:30N 49°46' W 000°44'5 9.8
2017-Dec-18 02:00N 49°49' W 000°50'6910.7
2017-Dec-17 19:32N 49°50' W 002°38'112.4
2017-Dec-17 19:25N 49°50' W 002°40'512.4
2017-Dec-17 19:00N 49°49' W 002°47'1012.3
2017-Dec-17 18:13N 49°46' W 003°02'312.1
2017-Dec-17 18:00N 49°46' W 003°06'612.4
2017-Dec-17 17:31N 49°44' W 003°15'6712.6
2017-Dec-17 12:10N 49°22' W 004°53'611.6
2017-Dec-17 11:42N 49°20' W 005°01'411.4
2017-Dec-17 11:23N 49°19' W 005°06'511.0
2017-Dec-17 10:56N 49°18' W 005°13'20 9.9
2017-Dec-17 08:58N 49°11' W 005°41'6 8.9
2017-Dec-17 08:18N 49°09' W 005°49'3 9.1
2017-Dec-17 08:00N 49°09' W 005°54'2910.6
2017-Dec-17 05:17N 48°59' W 006°35'  
Track history (hours):
 
Tides and Currents Weather Stations Pressure Air Temp Water Temp Dewpoint Dewpoint Depression Visibility Wind Speed Wind Dir Waves Ship Positions

Explorer Spirit

Last reported at 2017-Dec-18 16:29 UTC. Time now 2017-Dec-18 16:47 UTC.
Position N 49°28' E 000°09'.

Length 240 m; draft 12.3 m.

Type: Tanker. MMSI: 308109000.

Date/timePositionNaut miles runAvg speedWind from/ knotsBaromVisibWave heightAir tempDewpointWater temp
2017-Dec-18 16:29N 49°28' E 000°09'0 0.0
2017-Dec-18 15:59N 49°28' E 000°09'0 0.0
2017-Dec-18 15:29N 49°28' E 000°09'0 0.0
2017-Dec-18 14:59N 49°28' E 000°09'0 0.0
2017-Dec-18 14:29N 49°28' E 000°09'0 0.0
2017-Dec-18 13:59N 49°28' E 000°09'0 0.0
2017-Dec-18 13:29N 49°28' E 000°09'0 0.0
2017-Dec-18 12:59N 49°28' E 000°09'0 0.0
2017-Dec-18 12:29N 49°28' E 000°09'0 0.0
2017-Dec-18 11:59N 49°28' E 000°09'0 0.0
2017-Dec-18 11:29N 49°28' E 000°09'0 0.0
2017-Dec-18 10:59N 49°28' E 000°09'0 0.0
2017-Dec-18 10:29N 49°28' E 000°09'0 0.0
2017-Dec-18 09:59N 49°28' E 000°09'0 0.0
2017-Dec-18 09:29N 49°28' E 000°09'0 0.0
2017-Dec-18 09:01N 49°28' E 000°09'0 0.6
2017-Dec-18 08:31N 49°28' E 000°10'2 5.0
2017-Dec-18 08:01N 49°29' E 000°06'4 8.2
2017-Dec-18 07:31N 49°30' W 000°00'510.8
2017-Dec-18 07:01N 49°32' W 000°08'4 9.0
2017-Dec-18 06:31N 49°34' W 000°14'3 6.7
2017-Dec-18 06:00N 49°35' W 000°19'2 4.3
2017-Dec-18 05:31N 49°37' W 000°20'1 2.5
2017-Dec-18 05:00N 49°37' W 000°21'2 3.4
2017-Dec-18 04:31N 49°37' W 000°24'2 4.7
2017-Dec-18 04:01N 49°38' W 000°27'4 8.2
2017-Dec-18 03:30N 49°41' W 000°32'5 9.6
2017-Dec-18 03:01N 49°43' W 000°38'5 9.7
2017-Dec-18 02:30N 49°46' W 000°44'5 9.8
2017-Dec-18 02:00N 49°49' W 000°50'6910.7
2017-Dec-17 19:32N 49°50' W 002°38'112.4
2017-Dec-17 19:25N 49°50' W 002°40'512.4
2017-Dec-17 19:00N 49°49' W 002°47'1012.3
2017-Dec-17 18:13N 49°46' W 003°02'312.1
2017-Dec-17 18:00N 49°46' W 003°06'612.4
2017-Dec-17 17:31N 49°44' W 003°15'6712.6
2017-Dec-17 12:10N 49°22' W 004°53'611.6
2017-Dec-17 11:42N 49°20' W 005°01'411.4
2017-Dec-17 11:23N 49°19' W 005°06'511.0
2017-Dec-17 10:56N 49°18' W 005°13'20 9.9
2017-Dec-17 08:58N 49°11' W 005°41'6 8.9
2017-Dec-17 08:18N 49°09' W 005°49'3 9.1
2017-Dec-17 08:00N 49°09' W 005°54'2910.6
2017-Dec-17 05:17N 48°59' W 006°35'  

Dump ship's entire track history